sensor_id;sensor_type;location;lat;lon;timestamp;P1;durP1;ratioP1;P2;durP2;ratioP2
54123;SDS011;55741;53.252;5.788;2023-07-20T00:01:16;2.72;;;1.40;;
54123;SDS011;55741;53.252;5.788;2023-07-20T00:03:42;2.53;;;1.30;;
54123;SDS011;55741;53.252;5.788;2023-07-20T00:06:08;3.45;;;1.67;;
54123;SDS011;55741;53.252;5.788;2023-07-20T00:08:34;5.07;;;1.20;;
54123;SDS011;55741;53.252;5.788;2023-07-20T00:11:00;3.33;;;1.40;;
54123;SDS011;55741;53.252;5.788;2023-07-20T00:13:26;2.25;;;1.33;;
54123;SDS011;55741;53.252;5.788;2023-07-20T00:15:53;2.55;;;1.40;;
54123;SDS011;55741;53.252;5.788;2023-07-20T00:18:18;6.40;;;1.70;;
54123;SDS011;55741;53.252;5.788;2023-07-20T00:20:46;3.10;;;1.50;;
54123;SDS011;55741;53.252;5.788;2023-07-20T00:23:13;6.95;;;1.65;;
54123;SDS011;55741;53.252;5.788;2023-07-20T00:25:39;5.00;;;1.67;;
54123;SDS011;55741;53.252;5.788;2023-07-20T00:28:05;4.03;;;1.60;;
54123;SDS011;55741;53.252;5.788;2023-07-20T00:30:30;4.18;;;1.60;;
54123;SDS011;55741;53.252;5.788;2023-07-20T00:32:56;3.00;;;1.63;;
54123;SDS011;55741;53.252;5.788;2023-07-20T00:35:22;2.50;;;1.65;;
54123;SDS011;55741;53.252;5.788;2023-07-20T00:37:48;3.90;;;1.60;;
54123;SDS011;55741;53.252;5.788;2023-07-20T00:40:14;4.45;;;1.80;;
54123;SDS011;55741;53.252;5.788;2023-07-20T00:42:39;2.55;;;1.65;;
54123;SDS011;55741;53.252;5.788;2023-07-20T00:45:05;7.38;;;1.50;;
54123;SDS011;55741;53.252;5.788;2023-07-20T00:47:31;3.97;;;1.88;;
54123;SDS011;55741;53.252;5.788;2023-07-20T00:49:58;6.75;;;1.80;;
54123;SDS011;55741;53.252;5.788;2023-07-20T00:52:24;5.68;;;1.80;;
54123;SDS011;55741;53.252;5.788;2023-07-20T00:54:52;5.80;;;1.80;;
54123;SDS011;55741;53.252;5.788;2023-07-20T00:57:23;5.30;;;1.80;;
54123;SDS011;55741;53.252;5.788;2023-07-20T00:59:51;2.78;;;1.60;;
54123;SDS011;55741;53.252;5.788;2023-07-20T01:02:17;4.22;;;1.40;;
54123;SDS011;55741;53.252;5.788;2023-07-20T01:04:43;3.60;;;1.60;;
54123;SDS011;55741;53.252;5.788;2023-07-20T01:07:23;3.63;;;1.70;;
54123;SDS011;55741;53.252;5.788;2023-07-20T01:10:00;2.95;;;1.40;;
54123;SDS011;55741;53.252;5.788;2023-07-20T01:12:42;2.60;;;1.40;;
54123;SDS011;55741;53.252;5.788;2023-07-20T01:15:09;5.70;;;1.70;;
54123;SDS011;55741;53.252;5.788;2023-07-20T01:17:35;3.38;;;1.50;;
54123;SDS011;55741;53.252;5.788;2023-07-20T01:20:01;4.68;;;1.52;;
54123;SDS011;55741;53.252;5.788;2023-07-20T01:30:52;2.92;;;1.67;;
54123;SDS011;55741;53.252;5.788;2023-07-20T01:33:40;3.45;;;1.55;;
54123;SDS011;55741;53.252;5.788;2023-07-20T01:36:07;7.20;;;1.45;;
54123;SDS011;55741;53.252;5.788;2023-07-20T01:38:33;4.32;;;1.50;;
54123;SDS011;55741;53.252;5.788;2023-07-20T01:41:00;2.70;;;1.73;;
54123;SDS011;55741;53.252;5.788;2023-07-20T01:43:27;4.03;;;2.13;;
54123;SDS011;55741;53.252;5.788;2023-07-20T01:45:53;3.63;;;1.63;;
54123;SDS011;55741;53.252;5.788;2023-07-20T01:48:18;2.70;;;1.55;;
54123;SDS011;55741;53.252;5.788;2023-07-20T01:50:44;4.07;;;1.67;;
54123;SDS011;55741;53.252;5.788;2023-07-20T01:53:11;5.22;;;2.20;;
54123;SDS011;55741;53.252;5.788;2023-07-20T01:55:37;3.85;;;2.17;;
54123;SDS011;55741;53.252;5.788;2023-07-20T01:58:04;3.47;;;2.00;;
54123;SDS011;55741;53.252;5.788;2023-07-20T02:00:31;5.25;;;1.95;;
54123;SDS011;55741;53.252;5.788;2023-07-20T02:02:57;4.38;;;2.20;;
54123;SDS011;55741;53.252;5.788;2023-07-20T02:05:22;3.78;;;2.15;;
54123;SDS011;55741;53.252;5.788;2023-07-20T02:07:48;6.13;;;2.50;;
54123;SDS011;55741;53.252;5.788;2023-07-20T02:10:14;3.65;;;2.42;;
54123;SDS011;55741;53.252;5.788;2023-07-20T02:12:40;3.40;;;2.33;;
54123;SDS011;55741;53.252;5.788;2023-07-20T02:15:06;7.65;;;2.28;;
54123;SDS011;55741;53.252;5.788;2023-07-20T02:17:33;3.30;;;2.30;;
54123;SDS011;55741;53.252;5.788;2023-07-20T02:19:59;7.60;;;2.33;;
54123;SDS011;55741;53.252;5.788;2023-07-20T02:22:25;7.22;;;2.55;;
54123;SDS011;55741;53.252;5.788;2023-07-20T02:24:50;4.18;;;2.45;;
54123;SDS011;55741;53.252;5.788;2023-07-20T02:27:16;9.95;;;2.50;;
54123;SDS011;55741;53.252;5.788;2023-07-20T02:29:42;4.65;;;2.53;;
54123;SDS011;55741;53.252;5.788;2023-07-20T02:32:08;8.10;;;2.50;;
54123;SDS011;55741;53.252;5.788;2023-07-20T02:34:37;4.38;;;2.08;;
54123;SDS011;55741;53.252;5.788;2023-07-20T02:37:03;10.38;;;3.00;;
54123;SDS011;55741;53.252;5.788;2023-07-20T02:39:29;3.45;;;2.15;;
54123;SDS011;55741;53.252;5.788;2023-07-20T02:41:55;9.55;;;2.90;;
54123;SDS011;55741;53.252;5.788;2023-07-20T02:44:21;6.32;;;2.97;;
54123;SDS011;55741;53.252;5.788;2023-07-20T02:46:48;3.60;;;2.90;;
54123;SDS011;55741;53.252;5.788;2023-07-20T02:49:14;5.25;;;2.67;;
54123;SDS011;55741;53.252;5.788;2023-07-20T02:51:41;3.97;;;2.53;;
54123;SDS011;55741;53.252;5.788;2023-07-20T02:54:07;3.75;;;2.88;;
54123;SDS011;55741;53.252;5.788;2023-07-20T02:56:33;4.70;;;2.90;;
54123;SDS011;55741;53.252;5.788;2023-07-20T02:59:01;3.60;;;2.60;;
54123;SDS011;55741;53.252;5.788;2023-07-20T03:01:27;5.43;;;2.63;;
54123;SDS011;55741;53.252;5.788;2023-07-20T03:03:54;4.75;;;3.17;;
54123;SDS011;55741;53.252;5.788;2023-07-20T03:06:21;5.05;;;2.53;;
54123;SDS011;55741;53.252;5.788;2023-07-20T03:08:47;7.38;;;2.83;;
54123;SDS011;55741;53.252;5.788;2023-07-20T03:11:14;5.10;;;2.80;;
54123;SDS011;55741;53.252;5.788;2023-07-20T03:13:41;6.60;;;2.95;;
54123;SDS011;55741;53.252;5.788;2023-07-20T03:16:08;6.32;;;2.90;;
54123;SDS011;55741;53.252;5.788;2023-07-20T03:18:39;5.45;;;3.40;;
54123;SDS011;55741;53.252;5.788;2023-07-20T03:21:05;7.43;;;2.80;;
54123;SDS011;55741;53.252;5.788;2023-07-20T03:23:32;3.40;;;2.80;;
54123;SDS011;55741;53.252;5.788;2023-07-20T03:25:58;6.13;;;2.75;;
54123;SDS011;55741;53.252;5.788;2023-07-20T03:28:24;3.55;;;2.28;;
54123;SDS011;55741;53.252;5.788;2023-07-20T03:30:54;6.70;;;2.63;;
54123;SDS011;55741;53.252;5.788;2023-07-20T03:33:26;5.90;;;2.80;;
54123;SDS011;55741;53.252;5.788;2023-07-20T03:35:53;4.85;;;2.72;;
54123;SDS011;55741;53.252;5.788;2023-07-20T03:38:20;5.28;;;2.60;;
54123;SDS011;55741;53.252;5.788;2023-07-20T03:40:59;5.25;;;2.30;;
54123;SDS011;55741;53.252;5.788;2023-07-20T03:43:26;4.95;;;2.75;;
54123;SDS011;55741;53.252;5.788;2023-07-20T03:45:53;3.67;;;2.28;;
54123;SDS011;55741;53.252;5.788;2023-07-20T03:48:20;6.93;;;2.20;;
54123;SDS011;55741;53.252;5.788;2023-07-20T03:50:48;4.72;;;2.30;;
54123;SDS011;55741;53.252;5.788;2023-07-20T03:53:15;5.53;;;2.50;;
54123;SDS011;55741;53.252;5.788;2023-07-20T03:55:42;4.97;;;2.30;;
54123;SDS011;55741;53.252;5.788;2023-07-20T03:58:11;6.07;;;2.35;;
54123;SDS011;55741;53.252;5.788;2023-07-20T04:00:40;4.28;;;2.10;;
54123;SDS011;55741;53.252;5.788;2023-07-20T04:03:10;4.75;;;2.50;;
54123;SDS011;55741;53.252;5.788;2023-07-20T04:05:35;5.50;;;2.35;;
54123;SDS011;55741;53.252;5.788;2023-07-20T04:08:01;6.57;;;2.22;;
54123;SDS011;55741;53.252;5.788;2023-07-20T04:10:27;4.45;;;2.40;;
54123;SDS011;55741;53.252;5.788;2023-07-20T04:12:53;5.45;;;1.95;;
54123;SDS011;55741;53.252;5.788;2023-07-20T04:15:19;6.07;;;2.58;;
54123;SDS011;55741;53.252;5.788;2023-07-20T04:17:45;4.80;;;2.00;;
54123;SDS011;55741;53.252;5.788;2023-07-20T04:20:11;4.20;;;2.08;;
54123;SDS011;55741;53.252;5.788;2023-07-20T04:22:37;5.05;;;2.40;;
54123;SDS011;55741;53.252;5.788;2023-07-20T04:25:03;9.68;;;2.85;;
54123;SDS011;55741;53.252;5.788;2023-07-20T04:27:29;5.22;;;2.20;;
54123;SDS011;55741;53.252;5.788;2023-07-20T04:29:55;6.35;;;2.10;;
54123;SDS011;55741;53.252;5.788;2023-07-20T04:32:25;7.95;;;1.88;;
54123;SDS011;55741;53.252;5.788;2023-07-20T04:34:51;5.45;;;1.95;;
54123;SDS011;55741;53.252;5.788;2023-07-20T04:37:16;6.88;;;2.20;;
54123;SDS011;55741;53.252;5.788;2023-07-20T04:39:42;11.13;;;2.20;;
54123;SDS011;55741;53.252;5.788;2023-07-20T04:42:08;5.38;;;1.60;;
54123;SDS011;55741;53.252;5.788;2023-07-20T04:44:34;8.45;;;2.35;;
54123;SDS011;55741;53.252;5.788;2023-07-20T04:46:59;5.00;;;1.73;;
54123;SDS011;55741;53.252;5.788;2023-07-20T04:49:25;4.10;;;1.50;;
54123;SDS011;55741;53.252;5.788;2023-07-20T04:51:51;6.95;;;1.50;;
54123;SDS011;55741;53.252;5.788;2023-07-20T04:54:17;6.28;;;1.70;;
54123;SDS011;55741;53.252;5.788;2023-07-20T04:56:44;5.63;;;1.80;;
54123;SDS011;55741;53.252;5.788;2023-07-20T04:59:10;8.52;;;1.77;;
54123;SDS011;55741;53.252;5.788;2023-07-20T05:01:37;8.35;;;1.80;;
54123;SDS011;55741;53.252;5.788;2023-07-20T05:04:03;3.75;;;1.58;;
54123;SDS011;55741;53.252;5.788;2023-07-20T05:06:29;4.25;;;1.70;;
54123;SDS011;55741;53.252;5.788;2023-07-20T05:08:54;5.07;;;1.52;;
54123;SDS011;55741;53.252;5.788;2023-07-20T05:11:20;8.90;;;1.80;;
54123;SDS011;55741;53.252;5.788;2023-07-20T05:13:46;8.27;;;2.05;;
54123;SDS011;55741;53.252;5.788;2023-07-20T05:16:12;10.63;;;2.78;;
54123;SDS011;55741;53.252;5.788;2023-07-20T05:18:38;9.25;;;2.08;;
54123;SDS011;55741;53.252;5.788;2023-07-20T05:21:05;6.22;;;2.20;;
54123;SDS011;55741;53.252;5.788;2023-07-20T05:23:31;6.03;;;2.00;;
54123;SDS011;55741;53.252;5.788;2023-07-20T05:25:57;6.28;;;2.00;;
54123;SDS011;55741;53.252;5.788;2023-07-20T05:28:24;7.50;;;1.88;;
54123;SDS011;55741;53.252;5.788;2023-07-20T05:30:51;3.58;;;1.75;;
54123;SDS011;55741;53.252;5.788;2023-07-20T05:33:18;4.10;;;1.80;;
54123;SDS011;55741;53.252;5.788;2023-07-20T05:35:44;6.72;;;2.17;;
54123;SDS011;55741;53.252;5.788;2023-07-20T05:38:10;4.97;;;1.63;;
54123;SDS011;55741;53.252;5.788;2023-07-20T05:40:40;6.05;;;1.30;;
54123;SDS011;55741;53.252;5.788;2023-07-20T05:43:09;5.50;;;1.70;;
54123;SDS011;55741;53.252;5.788;2023-07-20T05:45:35;3.67;;;1.65;;
54123;SDS011;55741;53.252;5.788;2023-07-20T05:48:02;4.05;;;2.10;;
54123;SDS011;55741;53.252;5.788;2023-07-20T05:50:28;2.47;;;1.20;;
54123;SDS011;55741;53.252;5.788;2023-07-20T05:52:54;4.57;;;1.30;;
54123;SDS011;55741;53.252;5.788;2023-07-20T05:55:20;6.20;;;1.80;;
54123;SDS011;55741;53.252;5.788;2023-07-20T05:57:46;4.03;;;1.55;;
54123;SDS011;55741;53.252;5.788;2023-07-20T06:00:13;7.53;;;1.65;;
54123;SDS011;55741;53.252;5.788;2023-07-20T06:02:41;5.70;;;1.40;;
54123;SDS011;55741;53.252;5.788;2023-07-20T06:05:07;5.93;;;1.63;;
54123;SDS011;55741;53.252;5.788;2023-07-20T06:07:37;6.25;;;2.00;;
54123;SDS011;55741;53.252;5.788;2023-07-20T06:10:03;7.40;;;2.10;;
54123;SDS011;55741;53.252;5.788;2023-07-20T06:12:30;5.65;;;2.25;;
54123;SDS011;55741;53.252;5.788;2023-07-20T06:14:57;8.50;;;2.00;;
54123;SDS011;55741;53.252;5.788;2023-07-20T06:17:26;5.15;;;1.80;;
54123;SDS011;55741;53.252;5.788;2023-07-20T06:19:52;4.50;;;1.40;;
54123;SDS011;55741;53.252;5.788;2023-07-20T06:22:18;5.65;;;1.75;;
54123;SDS011;55741;53.252;5.788;2023-07-20T06:24:44;6.22;;;1.98;;
54123;SDS011;55741;53.252;5.788;2023-07-20T06:27:10;6.03;;;2.40;;
54123;SDS011;55741;53.252;5.788;2023-07-20T06:29:37;7.05;;;2.60;;
54123;SDS011;55741;53.252;5.788;2023-07-20T06:32:04;6.07;;;2.80;;
54123;SDS011;55741;53.252;5.788;2023-07-20T06:34:31;6.50;;;2.67;;
54123;SDS011;55741;53.252;5.788;2023-07-20T06:37:02;5.35;;;2.80;;
54123;SDS011;55741;53.252;5.788;2023-07-20T06:39:29;6.80;;;2.70;;
54123;SDS011;55741;53.252;5.788;2023-07-20T06:41:55;8.25;;;3.30;;
54123;SDS011;55741;53.252;5.788;2023-07-20T06:44:21;8.60;;;2.83;;
54123;SDS011;55741;53.252;5.788;2023-07-20T06:46:47;8.50;;;3.47;;
54123;SDS011;55741;53.252;5.788;2023-07-20T06:49:23;5.40;;;2.60;;
54123;SDS011;55741;53.252;5.788;2023-07-20T06:51:53;8.45;;;2.60;;
54123;SDS011;55741;53.252;5.788;2023-07-20T06:54:19;5.85;;;2.92;;
54123;SDS011;55741;53.252;5.788;2023-07-20T06:56:45;6.90;;;2.90;;
54123;SDS011;55741;53.252;5.788;2023-07-20T06:59:11;6.22;;;2.30;;
54123;SDS011;55741;53.252;5.788;2023-07-20T07:01:37;9.95;;;3.05;;
54123;SDS011;55741;53.252;5.788;2023-07-20T07:04:05;4.70;;;2.65;;
54123;SDS011;55741;53.252;5.788;2023-07-20T07:06:31;6.50;;;2.75;;
54123;SDS011;55741;53.252;5.788;2023-07-20T07:08:58;5.22;;;2.55;;
54123;SDS011;55741;53.252;5.788;2023-07-20T07:11:24;7.30;;;3.00;;
54123;SDS011;55741;53.252;5.788;2023-07-20T07:13:49;8.98;;;2.60;;
54123;SDS011;55741;53.252;5.788;2023-07-20T07:16:19;9.27;;;3.17;;
54123;SDS011;55741;53.252;5.788;2023-07-20T07:18:45;8.63;;;3.05;;
54123;SDS011;55741;53.252;5.788;2023-07-20T07:21:11;10.18;;;2.97;;
54123;SDS011;55741;53.252;5.788;2023-07-20T07:23:40;9.10;;;3.72;;
54123;SDS011;55741;53.252;5.788;2023-07-20T07:26:05;6.85;;;2.90;;
54123;SDS011;55741;53.252;5.788;2023-07-20T07:28:31;11.30;;;3.20;;
54123;SDS011;55741;53.252;5.788;2023-07-20T07:30:57;4.80;;;2.42;;
54123;SDS011;55741;53.252;5.788;2023-07-20T07:33:24;7.50;;;2.72;;
54123;SDS011;55741;53.252;5.788;2023-07-20T07:35:50;8.00;;;3.08;;
54123;SDS011;55741;53.252;5.788;2023-07-20T07:38:19;7.85;;;2.97;;
54123;SDS011;55741;53.252;5.788;2023-07-20T07:40:45;6.15;;;2.63;;
54123;SDS011;55741;53.252;5.788;2023-07-20T07:43:11;7.53;;;2.78;;
54123;SDS011;55741;53.252;5.788;2023-07-20T07:45:39;9.57;;;2.78;;
54123;SDS011;55741;53.252;5.788;2023-07-20T07:48:05;8.38;;;2.83;;
54123;SDS011;55741;53.252;5.788;2023-07-20T07:50:31;8.25;;;2.97;;
54123;SDS011;55741;53.252;5.788;2023-07-20T07:52:58;8.25;;;2.90;;
54123;SDS011;55741;53.252;5.788;2023-07-20T07:55:25;4.82;;;2.45;;
54123;SDS011;55741;53.252;5.788;2023-07-20T07:57:53;5.13;;;2.15;;
54123;SDS011;55741;53.252;5.788;2023-07-20T08:00:19;6.65;;;2.55;;
54123;SDS011;55741;53.252;5.788;2023-07-20T08:02:45;6.32;;;2.45;;
54123;SDS011;55741;53.252;5.788;2023-07-20T08:05:16;5.72;;;2.25;;
54123;SDS011;55741;53.252;5.788;2023-07-20T08:07:42;4.68;;;2.00;;
54123;SDS011;55741;53.252;5.788;2023-07-20T08:10:08;6.78;;;2.33;;
54123;SDS011;55741;53.252;5.788;2023-07-20T08:12:35;6.82;;;2.53;;
54123;SDS011;55741;53.252;5.788;2023-07-20T08:15:01;7.72;;;2.33;;
54123;SDS011;55741;53.252;5.788;2023-07-20T08:17:27;9.30;;;2.33;;
54123;SDS011;55741;53.252;5.788;2023-07-20T08:19:52;6.72;;;2.35;;
54123;SDS011;55741;53.252;5.788;2023-07-20T08:22:18;6.50;;;2.92;;
54123;SDS011;55741;53.252;5.788;2023-07-20T08:24:44;8.88;;;2.40;;
54123;SDS011;55741;53.252;5.788;2023-07-20T08:27:10;8.55;;;2.10;;
54123;SDS011;55741;53.252;5.788;2023-07-20T08:29:36;5.40;;;2.00;;
54123;SDS011;55741;53.252;5.788;2023-07-20T08:32:03;6.60;;;2.00;;
54123;SDS011;55741;53.252;5.788;2023-07-20T08:34:30;4.65;;;1.67;;
54123;SDS011;55741;53.252;5.788;2023-07-20T08:36:57;5.55;;;1.90;;
54123;SDS011;55741;53.252;5.788;2023-07-20T08:39:24;6.22;;;2.10;;
54123;SDS011;55741;53.252;5.788;2023-07-20T08:41:50;5.90;;;2.10;;
54123;SDS011;55741;53.252;5.788;2023-07-20T08:44:17;6.85;;;2.40;;
54123;SDS011;55741;53.252;5.788;2023-07-20T08:46:42;6.68;;;2.13;;
54123;SDS011;55741;53.252;5.788;2023-07-20T08:49:10;3.63;;;1.77;;
54123;SDS011;55741;53.252;5.788;2023-07-20T08:51:36;5.28;;;1.90;;
54123;SDS011;55741;53.252;5.788;2023-07-20T08:54:04;6.05;;;2.45;;
54123;SDS011;55741;53.252;5.788;2023-07-20T08:56:31;2.92;;;1.45;;
54123;SDS011;55741;53.252;5.788;2023-07-20T08:58:59;3.92;;;2.28;;
54123;SDS011;55741;53.252;5.788;2023-07-20T09:01:26;6.22;;;1.85;;
54123;SDS011;55741;53.252;5.788;2023-07-20T09:03:53;3.40;;;1.83;;
54123;SDS011;55741;53.252;5.788;2023-07-20T09:06:21;5.38;;;2.30;;
54123;SDS011;55741;53.252;5.788;2023-07-20T09:08:47;4.63;;;1.60;;
54123;SDS011;55741;53.252;5.788;2023-07-20T09:11:12;6.72;;;1.85;;
54123;SDS011;55741;53.252;5.788;2023-07-20T09:13:42;4.20;;;1.90;;
54123;SDS011;55741;53.252;5.788;2023-07-20T09:16:08;4.13;;;2.10;;
54123;SDS011;55741;53.252;5.788;2023-07-20T09:18:38;3.75;;;2.13;;
54123;SDS011;55741;53.252;5.788;2023-07-20T09:21:04;4.57;;;1.92;;
54123;SDS011;55741;53.252;5.788;2023-07-20T09:23:37;6.00;;;2.38;;
54123;SDS011;55741;53.252;5.788;2023-07-20T09:26:14;6.57;;;2.00;;
54123;SDS011;55741;53.252;5.788;2023-07-20T09:28:51;4.85;;;2.10;;
54123;SDS011;55741;53.252;5.788;2023-07-20T09:31:18;5.90;;;2.05;;
54123;SDS011;55741;53.252;5.788;2023-07-20T09:33:45;4.68;;;1.67;;
54123;SDS011;55741;53.252;5.788;2023-07-20T09:36:35;5.28;;;1.92;;
54123;SDS011;55741;53.252;5.788;2023-07-20T09:39:03;5.55;;;1.88;;
54123;SDS011;55741;53.252;5.788;2023-07-20T09:41:30;6.75;;;2.42;;
54123;SDS011;55741;53.252;5.788;2023-07-20T09:44:05;4.85;;;1.70;;
54123;SDS011;55741;53.252;5.788;2023-07-20T09:46:46;6.63;;;2.05;;
54123;SDS011;55741;53.252;5.788;2023-07-20T09:49:16;4.78;;;2.05;;
54123;SDS011;55741;53.252;5.788;2023-07-20T09:51:44;3.67;;;1.90;;
54123;SDS011;55741;53.252;5.788;2023-07-20T09:54:11;5.30;;;1.95;;
54123;SDS011;55741;53.252;5.788;2023-07-20T09:56:39;5.68;;;2.55;;
54123;SDS011;55741;53.252;5.788;2023-07-20T09:59:06;5.47;;;2.20;;
54123;SDS011;55741;53.252;5.788;2023-07-20T10:01:32;5.18;;;2.22;;
54123;SDS011;55741;53.252;5.788;2023-07-20T10:04:00;6.70;;;2.00;;
54123;SDS011;55741;53.252;5.788;2023-07-20T10:06:32;5.15;;;1.88;;
54123;SDS011;55741;53.252;5.788;2023-07-20T10:09:03;3.80;;;2.00;;
54123;SDS011;55741;53.252;5.788;2023-07-20T10:11:30;5.35;;;2.20;;
54123;SDS011;55741;53.252;5.788;2023-07-20T10:13:57;4.03;;;1.90;;
54123;SDS011;55741;53.252;5.788;2023-07-20T10:19:17;6.20;;;2.10;;
54123;SDS011;55741;53.252;5.788;2023-07-20T10:21:55;3.65;;;2.13;;
54123;SDS011;55741;53.252;5.788;2023-07-20T10:24:26;5.45;;;2.20;;
54123;SDS011;55741;53.252;5.788;2023-07-20T10:26:53;4.03;;;2.33;;
54123;SDS011;55741;53.252;5.788;2023-07-20T10:29:21;4.47;;;1.90;;
54123;SDS011;55741;53.252;5.788;2023-07-20T10:31:48;4.75;;;2.30;;
54123;SDS011;55741;53.252;5.788;2023-07-20T10:34:14;4.95;;;2.20;;
54123;SDS011;55741;53.252;5.788;2023-07-20T10:36:44;4.15;;;2.13;;
54123;SDS011;55741;53.252;5.788;2023-07-20T10:39:22;3.60;;;1.90;;
54123;SDS011;55741;53.252;5.788;2023-07-20T10:42:08;3.53;;;1.98;;
54123;SDS011;55741;53.252;5.788;2023-07-20T10:44:39;5.50;;;2.42;;
54123;SDS011;55741;53.252;5.788;2023-07-20T10:47:12;6.35;;;2.30;;
54123;SDS011;55741;53.252;5.788;2023-07-20T10:49:57;4.13;;;2.30;;
54123;SDS011;55741;53.252;5.788;2023-07-20T10:52:25;3.95;;;2.00;;
54123;SDS011;55741;53.252;5.788;2023-07-20T10:54:51;4.18;;;1.80;;
54123;SDS011;55741;53.252;5.788;2023-07-20T10:59:50;4.28;;;2.25;;
54123;SDS011;55741;53.252;5.788;2023-07-20T11:02:19;4.95;;;2.20;;
54123;SDS011;55741;53.252;5.788;2023-07-20T11:04:46;6.15;;;2.58;;
54123;SDS011;55741;53.252;5.788;2023-07-20T11:07:15;5.32;;;2.47;;
54123;SDS011;55741;53.252;5.788;2023-07-20T11:09:43;5.05;;;2.90;;
54123;SDS011;55741;53.252;5.788;2023-07-20T11:12:09;4.82;;;1.92;;
54123;SDS011;55741;53.252;5.788;2023-07-20T11:14:40;4.55;;;2.40;;
54123;SDS011;55741;53.252;5.788;2023-07-20T11:17:29;4.90;;;2.35;;
54123;SDS011;55741;53.252;5.788;2023-07-20T11:19:56;4.50;;;2.00;;
54123;SDS011;55741;53.252;5.788;2023-07-20T11:22:23;5.00;;;2.15;;
54123;SDS011;55741;53.252;5.788;2023-07-20T11:24:49;5.00;;;2.45;;
54123;SDS011;55741;53.252;5.788;2023-07-20T11:27:15;4.63;;;1.90;;
54123;SDS011;55741;53.252;5.788;2023-07-20T11:29:45;8.02;;;2.30;;
54123;SDS011;55741;53.252;5.788;2023-07-20T11:32:10;6.97;;;2.00;;
54123;SDS011;55741;53.252;5.788;2023-07-20T11:34:36;4.60;;;2.03;;
54123;SDS011;55741;53.252;5.788;2023-07-20T11:37:02;5.30;;;1.90;;
54123;SDS011;55741;53.252;5.788;2023-07-20T11:39:29;3.53;;;2.03;;
54123;SDS011;55741;53.252;5.788;2023-07-20T11:41:55;3.42;;;2.10;;
54123;SDS011;55741;53.252;5.788;2023-07-20T11:44:22;4.55;;;2.15;;
54123;SDS011;55741;53.252;5.788;2023-07-20T11:47:08;3.30;;;2.03;;
54123;SDS011;55741;53.252;5.788;2023-07-20T11:49:40;6.10;;;2.30;;
54123;SDS011;55741;53.252;5.788;2023-07-20T11:52:08;3.53;;;2.22;;
54123;SDS011;55741;53.252;5.788;2023-07-20T11:54:36;5.82;;;2.10;;
54123;SDS011;55741;53.252;5.788;2023-07-20T11:57:04;4.05;;;2.20;;
54123;SDS011;55741;53.252;5.788;2023-07-20T11:59:30;4.00;;;2.28;;
54123;SDS011;55741;53.252;5.788;2023-07-20T12:01:58;4.97;;;2.08;;
54123;SDS011;55741;53.252;5.788;2023-07-20T12:04:28;6.32;;;2.15;;
54123;SDS011;55741;53.252;5.788;2023-07-20T12:06:56;3.95;;;2.10;;
54123;SDS011;55741;53.252;5.788;2023-07-20T12:09:23;4.20;;;2.17;;
54123;SDS011;55741;53.252;5.788;2023-07-20T12:11:49;3.28;;;2.10;;
54123;SDS011;55741;53.252;5.788;2023-07-20T12:14:16;4.13;;;2.30;;
54123;SDS011;55741;53.252;5.788;2023-07-20T12:16:42;3.28;;;1.70;;
54123;SDS011;55741;53.252;5.788;2023-07-20T12:19:11;4.72;;;2.00;;
54123;SDS011;55741;53.252;5.788;2023-07-20T12:21:39;3.97;;;1.98;;
54123;SDS011;55741;53.252;5.788;2023-07-20T12:24:07;3.40;;;2.13;;
54123;SDS011;55741;53.252;5.788;2023-07-20T12:26:37;6.85;;;2.53;;
54123;SDS011;55741;53.252;5.788;2023-07-20T12:29:03;3.58;;;1.83;;
54123;SDS011;55741;53.252;5.788;2023-07-20T12:31:30;6.82;;;2.20;;
54123;SDS011;55741;53.252;5.788;2023-07-20T12:34:01;5.53;;;2.00;;
54123;SDS011;55741;53.252;5.788;2023-07-20T12:36:27;4.97;;;1.90;;
54123;SDS011;55741;53.252;5.788;2023-07-20T12:38:53;5.60;;;1.70;;
54123;SDS011;55741;53.252;5.788;2023-07-20T12:41:18;5.15;;;2.38;;
54123;SDS011;55741;53.252;5.788;2023-07-20T12:43:45;4.30;;;1.73;;
54123;SDS011;55741;53.252;5.788;2023-07-20T12:46:12;6.65;;;2.00;;
54123;SDS011;55741;53.252;5.788;2023-07-20T12:48:38;3.50;;;1.58;;
54123;SDS011;55741;53.252;5.788;2023-07-20T12:51:07;4.75;;;2.10;;
54123;SDS011;55741;53.252;5.788;2023-07-20T12:53:33;4.25;;;2.10;;
54123;SDS011;55741;53.252;5.788;2023-07-20T12:55:59;3.88;;;1.63;;
54123;SDS011;55741;53.252;5.788;2023-07-20T12:58:26;4.95;;;1.90;;
54123;SDS011;55741;53.252;5.788;2023-07-20T13:00:52;6.50;;;1.83;;
54123;SDS011;55741;53.252;5.788;2023-07-20T13:03:18;3.78;;;1.95;;
54123;SDS011;55741;53.252;5.788;2023-07-20T13:05:45;4.07;;;1.70;;
54123;SDS011;55741;53.252;5.788;2023-07-20T13:08:11;3.08;;;1.80;;
54123;SDS011;55741;53.252;5.788;2023-07-20T13:10:38;4.03;;;1.92;;
54123;SDS011;55741;53.252;5.788;2023-07-20T13:13:05;3.17;;;1.75;;
54123;SDS011;55741;53.252;5.788;2023-07-20T13:15:31;4.57;;;1.70;;
54123;SDS011;55741;53.252;5.788;2023-07-20T13:17:58;5.35;;;2.42;;
54123;SDS011;55741;53.252;5.788;2023-07-20T13:20:25;4.43;;;1.80;;
54123;SDS011;55741;53.252;5.788;2023-07-20T13:22:51;3.95;;;1.60;;
54123;SDS011;55741;53.252;5.788;2023-07-20T13:25:17;3.78;;;1.90;;
54123;SDS011;55741;53.252;5.788;2023-07-20T13:27:46;4.13;;;2.10;;
54123;SDS011;55741;53.252;5.788;2023-07-20T13:30:12;2.95;;;1.73;;
54123;SDS011;55741;53.252;5.788;2023-07-20T13:32:44;4.15;;;2.35;;
54123;SDS011;55741;53.252;5.788;2023-07-20T13:35:11;5.38;;;1.83;;
54123;SDS011;55741;53.252;5.788;2023-07-20T13:37:37;5.22;;;1.73;;
54123;SDS011;55741;53.252;5.788;2023-07-20T13:40:03;3.35;;;2.10;;
54123;SDS011;55741;53.252;5.788;2023-07-20T13:42:30;4.60;;;2.03;;
54123;SDS011;55741;53.252;5.788;2023-07-20T13:44:59;5.32;;;2.40;;
54123;SDS011;55741;53.252;5.788;2023-07-20T13:47:26;3.45;;;1.55;;
54123;SDS011;55741;53.252;5.788;2023-07-20T13:49:52;4.07;;;1.88;;
54123;SDS011;55741;53.252;5.788;2023-07-20T13:52:18;7.40;;;2.13;;
54123;SDS011;55741;53.252;5.788;2023-07-20T13:54:44;4.70;;;2.05;;
54123;SDS011;55741;53.252;5.788;2023-07-20T13:57:10;4.20;;;1.90;;
54123;SDS011;55741;53.252;5.788;2023-07-20T13:59:35;7.50;;;2.10;;
54123;SDS011;55741;53.252;5.788;2023-07-20T14:02:01;3.67;;;2.08;;
54123;SDS011;55741;53.252;5.788;2023-07-20T14:04:27;5.45;;;2.33;;
54123;SDS011;55741;53.252;5.788;2023-07-20T14:06:54;5.60;;;2.08;;
54123;SDS011;55741;53.252;5.788;2023-07-20T14:09:20;4.18;;;1.73;;
54123;SDS011;55741;53.252;5.788;2023-07-20T14:11:47;4.03;;;2.15;;
54123;SDS011;55741;53.252;5.788;2023-07-20T14:14:13;4.05;;;1.85;;
54123;SDS011;55741;53.252;5.788;2023-07-20T14:16:39;3.58;;;2.03;;
54123;SDS011;55741;53.252;5.788;2023-07-20T14:19:05;3.13;;;1.67;;
54123;SDS011;55741;53.252;5.788;2023-07-20T14:21:31;5.32;;;1.65;;
54123;SDS011;55741;53.252;5.788;2023-07-20T14:23:57;3.85;;;1.52;;
54123;SDS011;55741;53.252;5.788;2023-07-20T14:26:23;2.28;;;1.30;;
54123;SDS011;55741;53.252;5.788;2023-07-20T14:28:49;2.78;;;1.30;;
54123;SDS011;55741;53.252;5.788;2023-07-20T14:31:15;2.95;;;1.75;;
54123;SDS011;55741;53.252;5.788;2023-07-20T14:33:41;5.32;;;2.30;;
54123;SDS011;55741;53.252;5.788;2023-07-20T14:36:07;4.63;;;1.70;;
54123;SDS011;55741;53.252;5.788;2023-07-20T14:38:33;2.72;;;1.90;;
54123;SDS011;55741;53.252;5.788;2023-07-20T14:41:00;3.15;;;1.40;;
54123;SDS011;55741;53.252;5.788;2023-07-20T14:43:26;4.30;;;2.00;;
54123;SDS011;55741;53.252;5.788;2023-07-20T14:45:51;3.75;;;1.92;;
54123;SDS011;55741;53.252;5.788;2023-07-20T14:48:17;3.05;;;2.15;;
54123;SDS011;55741;53.252;5.788;2023-07-20T14:50:43;4.78;;;2.20;;
54123;SDS011;55741;53.252;5.788;2023-07-20T14:53:15;3.92;;;1.98;;
54123;SDS011;55741;53.252;5.788;2023-07-20T14:55:41;3.05;;;1.77;;
54123;SDS011;55741;53.252;5.788;2023-07-20T14:58:08;3.65;;;2.13;;
54123;SDS011;55741;53.252;5.788;2023-07-20T15:00:34;5.45;;;2.40;;
54123;SDS011;55741;53.252;5.788;2023-07-20T15:03:00;4.95;;;2.05;;